Time;durP1;ratioP1;P1;durP2;ratioP2;P2;SDS_P1;SDS_P2;PMS_P1;PMS_P2;Temp;Humidity;BMP_temperature;BMP_pressure;BME280_temperature;BME280_humidity;BME280_pressure;Samples;Min_cycle;Max_cycle;Signal;HPM_P1;HPM_P2
2021/08/17 00:01:52;;;;;;;14.23;3.45;;;13.70;72.10;;;;;;5074174;28;20032;-48
2021/08/17 00:04:18;;;;;;;7.20;2.22;;;13.70;72.00;;;;;;5074085;28;20056;-46
2021/08/17 00:06:44;;;;;;;6.72;2.25;;;13.70;72.30;;;;;;5074049;28;20036;-47
2021/08/17 00:09:09;;;;;;;8.85;2.45;;;13.70;72.60;;;;;;5074119;28;20040;-48
2021/08/17 00:11:35;;;;;;;11.70;2.97;;;13.60;73.00;;;;;;5074297;28;20295;-47
2021/08/17 00:14:01;;;;;;;12.90;2.72;;;13.60;73.20;;;;;;5073911;28;20489;-47
2021/08/17 00:16:26;;;;;;;9.43;2.28;;;13.60;73.10;;;;;;5074153;28;20031;-49
2021/08/17 00:18:52;;;;;;;9.80;2.70;;;13.70;73.00;;;;;;5074054;28;20411;-48
2021/08/17 00:21:17;;;;;;;9.20;4.53;;;13.70;72.90;;;;;;5073582;28;20052;-46
2021/08/17 00:23:43;;;;;;;13.93;2.75;;;13.80;72.70;;;;;;5073688;28;20115;-47
2021/08/17 00:26:09;;;;;;;11.70;2.80;;;13.80;72.60;;;;;;5073686;28;20024;-46
2021/08/17 00:28:34;;;;;;;9.75;2.75;;;13.80;72.90;;;;;;5073664;28;20063;-47
2021/08/17 00:31:00;;;;;;;10.57;2.83;;;13.70;73.10;;;;;;5074037;28;20555;-46
2021/08/17 00:33:26;;;;;;;10.95;2.97;;;13.70;73.40;;;;;;5073531;28;20092;-46
2021/08/17 00:35:54;;;;;;;16.83;3.22;;;13.60;73.50;;;;;;5073722;28;20032;-46
2021/08/17 00:38:20;;;;;;;13.52;3.90;;;13.50;74.20;;;;;;5073838;28;20020;-47
2021/08/17 00:40:46;;;;;;;19.55;4.28;;;13.50;74.30;;;;;;5073391;28;20033;-50
2021/08/17 00:43:12;;;;;;;8.27;3.17;;;13.40;74.70;;;;;;5073522;28;20430;-46
2021/08/17 00:45:38;;;;;;;16.45;4.05;;;13.40;75.10;;;;;;5073575;28;20457;-47
2021/08/17 00:48:04;;;;;;;13.90;3.63;;;13.30;75.40;;;;;;5073787;28;20021;-46
2021/08/17 00:50:32;;;;;;;13.75;4.20;;;13.30;75.50;;;;;;5073772;28;20021;-46
2021/08/17 00:52:58;;;;;;;10.57;3.40;;;13.30;75.50;;;;;;5073509;28;20407;-46
2021/08/17 00:55:26;;;;;;;8.38;3.72;;;13.40;75.50;;;;;;5073154;28;20021;-46
2021/08/17 00:57:52;;;;;;;21.40;4.85;;;13.40;75.60;;;;;;5071868;28;20059;-46
2021/08/17 01:00:18;;;;;;;17.38;4.43;;;13.40;75.70;;;;;;5073131;28;20494;-46
2021/08/17 01:02:44;;;;;;;10.02;4.32;;;13.40;75.80;;;;;;5072873;28;20038;-47
2021/08/17 01:05:11;;;;;;;13.48;3.78;;;13.30;76.00;;;;;;5073075;28;20028;-49
2021/08/17 01:07:37;;;;;;;17.48;4.18;;;13.30;76.20;;;;;;5072858;28;20028;-50
2021/08/17 01:10:08;;;;;;;15.73;4.60;;;13.30;76.80;;;;;;5072330;28;20040;-46
2021/08/17 01:12:35;;;;;;;14.93;4.45;;;13.20;77.00;;;;;;5072806;28;20020;-47
2021/08/17 01:15:02;;;;;;;8.88;3.60;;;13.20;76.90;;;;;;5072754;28;20476;-46
2021/08/17 01:17:27;;;;;;;21.33;4.25;;;13.20;77.10;;;;;;5072809;28;20024;-49
2021/08/17 01:19:53;;;;;;;16.63;5.90;;;13.10;77.30;;;;;;5072957;28;20029;-47
2021/08/17 01:22:19;;;;;;;12.25;4.15;;;13.10;77.30;;;;;;5072475;28;20408;-47
2021/08/17 01:24:45;;;;;;;13.57;4.13;;;13.20;77.40;;;;;;5073291;28;20070;-46
2021/08/17 01:27:11;;;;;;;10.00;3.83;;;13.20;77.70;;;;;;5072743;28;20024;-46
2021/08/17 01:29:38;;;;;;;13.20;4.55;;;13.20;77.60;;;;;;5072998;28;20107;-47
2021/08/17 01:32:06;;;;;;;12.27;3.80;;;13.20;77.80;;;;;;5072661;28;20477;-49
2021/08/17 01:34:31;;;;;;;12.45;4.75;;;13.10;78.10;;;;;;5071527;28;20024;-47
2021/08/17 01:36:57;;;;;;;16.30;5.93;;;13.10;78.20;;;;;;5071535;28;20028;-47
2021/08/17 01:39:23;;;;;;;9.68;3.95;;;13.10;78.40;;;;;;5072707;28;20028;-46
2021/08/17 01:41:49;;;;;;;20.48;4.75;;;13.10;78.30;;;;;;5073020;28;20024;-46
2021/08/17 01:44:16;;;;;;;11.93;4.03;;;13.00;78.50;;;;;;5072597;28;20464;-50
2021/08/17 01:46:43;;;;;;;15.55;3.90;;;13.10;78.60;;;;;;5072608;28;20024;-49
2021/08/17 01:49:09;;;;;;;10.23;4.78;;;13.10;78.80;;;;;;5072898;28;20048;-47
2021/08/17 01:51:35;;;;;;;15.13;4.60;;;13.00;79.00;;;;;;5072622;28;20029;-45
2021/08/17 01:54:03;;;;;;;10.85;4.32;;;13.00;79.20;;;;;;5072796;28;20029;-46
2021/08/17 01:56:29;;;;;;;10.63;4.43;;;13.10;79.10;;;;;;5071550;28;20033;-46
2021/08/17 01:58:54;;;;;;;10.15;3.97;;;13.00;79.20;;;;;;5072813;28;20035;-46
2021/08/17 02:01:20;;;;;;;17.67;5.15;;;13.00;79.30;;;;;;5072719;28;20060;-47
2021/08/17 02:03:46;;;;;;;17.05;4.40;;;13.00;79.70;;;;;;5072440;28;20033;-48
2021/08/17 02:06:12;;;;;;;11.25;4.30;;;12.90;80.00;;;;;;5072434;28;20055;-46
2021/08/17 02:08:37;;;;;;;12.23;4.95;;;12.90;80.20;;;;;;5072710;28;20388;-47
2021/08/17 02:11:04;;;;;;;16.30;6.28;;;12.90;80.30;;;;;;5072487;28;20070;-47
2021/08/17 02:13:30;;;;;;;13.52;5.45;;;12.90;80.60;;;;;;5072627;28;20039;-47
2021/08/17 02:15:57;;;;;;;16.00;4.85;;;12.90;80.80;;;;;;5072595;28;20625;-46
2021/08/17 02:18:23;;;;;;;17.52;5.57;;;12.80;81.30;;;;;;5072585;28;20028;-47
2021/08/17 02:20:48;;;;;;;14.98;5.75;;;12.80;81.50;;;;;;5072945;28;20385;-47
2021/08/17 02:23:14;;;;;;;20.08;5.25;;;12.80;81.60;;;;;;5075823;28;20060;-47
2021/08/17 02:25:40;;;;;;;25.42;8.10;;;12.70;81.80;;;;;;5076456;28;20060;-46
2021/08/17 02:28:06;;;;;;;17.73;6.13;;;12.70;82.20;;;;;;5074736;28;20415;-47
2021/08/17 02:30:32;;;;;;;11.30;4.88;;;12.60;82.50;;;;;;5075993;28;20017;-45
2021/08/17 02:32:58;;;;;;;14.57;5.35;;;12.50;83.00;;;;;;5075980;28;20028;-48
2021/08/17 02:35:24;;;;;;;16.60;6.25;;;12.50;83.20;;;;;;5075944;28;20032;-47
2021/08/17 02:37:50;;;;;;;22.85;5.60;;;12.50;83.40;;;;;;5074583;28;20021;-48
2021/08/17 02:40:17;;;;;;;13.85;5.85;;;12.40;83.80;;;;;;5075729;28;20036;-47
2021/08/17 02:42:42;;;;;;;11.63;6.07;;;12.30;84.20;;;;;;5074486;28;20020;-47
2021/08/17 02:45:09;;;;;;;14.10;7.22;;;12.30;84.40;;;;;;5075643;28;20035;-46
2021/08/17 02:47:34;;;;;;;10.80;5.90;;;12.30;84.60;;;;;;5075609;28;20024;-46
2021/08/17 02:50:00;;;;;;;29.67;8.75;;;12.30;84.90;;;;;;5075585;28;20027;-46
2021/08/17 02:52:26;;;;;;;19.25;7.50;;;12.30;85.20;;;;;;5075960;28;20020;-46
2021/08/17 02:54:52;;;;;;;16.00;6.50;;;12.30;85.40;;;;;;5075845;28;20527;-46
2021/08/17 02:57:20;;;;;;;15.80;7.60;;;12.10;85.90;;;;;;5075705;28;20035;-47
2021/08/17 02:59:46;;;;;;;19.45;7.22;;;12.20;86.10;;;;;;5075765;28;20475;-46
2021/08/17 03:02:12;;;;;;;23.20;8.65;;;12.10;86.10;;;;;;5075750;28;20025;-46
2021/08/17 03:04:38;;;;;;;23.40;8.27;;;12.00;86.70;;;;;;5075702;28;20431;-46
2021/08/17 03:07:04;;;;;;;21.30;8.85;;;12.00;86.80;;;;;;5074048;28;20032;-47
2021/08/17 03:09:30;;;;;;;23.05;8.63;;;12.00;87.10;;;;;;5073952;28;20039;-46
2021/08/17 03:11:55;;;;;;;22.65;8.55;;;12.00;87.30;;;;;;5074004;28;20025;-46
2021/08/17 03:14:21;;;;;;;25.75;10.60;;;12.00;87.60;;;;;;5075237;28;20107;-46
2021/08/17 03:16:47;;;;;;;26.92;11.45;;;11.90;87.80;;;;;;5075329;28;20024;-46
2021/08/17 03:19:12;;;;;;;32.45;11.20;;;11.90;88.10;;;;;;5075030;28;20144;-46
2021/08/17 03:21:38;;;;;;;24.45;11.50;;;11.90;88.10;;;;;;5074794;28;20049;-45
2021/08/17 03:24:04;;;;;;;27.75;11.57;;;11.90;88.30;;;;;;5075409;28;20444;-46
2021/08/17 03:26:30;;;;;;;29.63;12.38;;;11.90;88.50;;;;;;5073642;28;20020;-46
2021/08/17 03:28:56;;;;;;;31.10;13.02;;;11.90;88.50;;;;;;5075389;28;20039;-46
2021/08/17 03:31:21;;;;;;;33.95;11.68;;;11.90;88.60;;;;;;5074794;28;20456;-46
2021/08/17 03:33:47;;;;;;;36.55;13.23;;;11.90;88.80;;;;;;5073282;28;20384;-46
2021/08/17 03:36:13;;;;;;;44.58;16.67;;;11.90;88.90;;;;;;5074751;28;20032;-46
2021/08/17 03:38:39;;;;;;;45.22;15.38;;;11.90;89.00;;;;;;5074664;28;20031;-46
2021/08/17 03:41:05;;;;;;;38.85;14.65;;;12.00;88.70;;;;;;5074577;28;20024;-49
2021/08/17 03:43:33;;;;;;;38.47;15.95;;;12.10;88.80;;;;;;5074715;28;20024;-47
2021/08/17 03:45:58;;;;;;;39.28;14.88;;;12.00;88.70;;;;;;5074492;28;20103;-46
2021/08/17 03:48:24;;;;;;;38.45;16.05;;;12.10;88.70;;;;;;5074472;28;20055;-46
2021/08/17 03:50:50;;;;;;;49.05;15.90;;;12.10;88.90;;;;;;5074344;28;20025;-45
2021/08/17 03:53:15;;;;;;;34.45;15.05;;;12.10;88.90;;;;;;5073804;28;20116;-46
2021/08/17 03:55:41;;;;;;;37.35;15.20;;;12.10;88.80;;;;;;5073901;28;20028;-47
2021/08/17 03:58:07;;;;;;;44.60;16.70;;;12.20;88.80;;;;;;5073750;28;20021;-46
2021/08/17 04:00:33;;;;;;;42.15;14.95;;;12.20;88.90;;;;;;5073720;28;20025;-46
2021/08/17 04:02:59;;;;;;;47.05;16.60;;;12.20;88.80;;;;;;5074001;28;20074;-50
2021/08/17 04:05:26;;;;;;;44.72;17.83;;;12.20;89.00;;;;;;5074183;28;20025;-48
2021/08/17 04:07:52;;;;;;;42.42;16.55;;;12.30;88.70;;;;;;5073744;28;20029;-47
2021/08/17 04:10:17;;;;;;;46.53;18.55;;;12.30;88.80;;;;;;5073943;28;20021;-49
2021/08/17 04:12:43;;;;;;;45.53;18.05;;;12.30;88.80;;;;;;5073666;28;20417;-46
2021/08/17 04:15:09;;;;;;;50.33;18.77;;;12.40;88.60;;;;;;5072117;28;20024;-49
2021/08/17 04:17:36;;;;;;;55.05;18.67;;;12.40;88.60;;;;;;5073463;28;20469;-47
2021/08/17 04:20:03;;;;;;;47.10;17.52;;;12.40;88.40;;;;;;5073308;28;20033;-46
2021/08/17 04:22:29;;;;;;;46.22;16.98;;;12.40;88.40;;;;;;5073027;28;20102;-46
2021/08/17 04:24:55;;;;;;;42.22;16.65;;;12.40;88.50;;;;;;5073333;28;20422;-46
2021/08/17 04:27:20;;;;;;;53.75;20.23;;;12.50;88.30;;;;;;5073052;28;20427;-49
2021/08/17 04:29:46;;;;;;;47.17;18.65;;;12.50;88.50;;;;;;5073225;28;20024;-47
2021/08/17 04:32:13;;;;;;;49.13;17.65;;;12.50;88.40;;;;;;5073176;28;20468;-47
2021/08/17 04:34:39;;;;;;;51.47;20.13;;;12.60;88.30;;;;;;5074119;28;20051;-47
2021/08/17 04:37:05;;;;;;;47.55;19.00;;;12.60;88.10;;;;;;5073253;28;20025;-47
2021/08/17 04:39:31;;;;;;;54.85;19.77;;;12.50;88.30;;;;;;5073517;28;20487;-50
2021/08/17 04:41:57;;;;;;;46.08;18.75;;;12.50;88.40;;;;;;5073052;28;20029;-46
2021/08/17 04:44:23;;;;;;;57.00;21.70;;;12.60;88.40;;;;;;5072850;28;20047;-46
2021/08/17 04:46:48;;;;;;;45.97;19.55;;;12.60;88.30;;;;;;5073277;28;20456;-46
2021/08/17 04:49:14;;;;;;;50.20;19.27;;;12.60;88.40;;;;;;5073220;28;20016;-46
2021/08/17 04:51:40;;;;;;;49.22;19.40;;;12.60;88.50;;;;;;5073229;28;20021;-46
2021/08/17 04:54:05;;;;;;;59.40;20.45;;;12.70;88.20;;;;;;5071614;28;20093;-48
2021/08/17 04:56:31;;;;;;;57.45;22.02;;;12.80;88.10;;;;;;5073074;28;20032;-47
2021/08/17 04:58:57;;;;;;;61.58;21.20;;;12.80;87.90;;;;;;5072869;28;20020;-47
2021/08/17 05:01:23;;;;;;;66.50;22.40;;;12.80;87.90;;;;;;5072791;28;20153;-48
2021/08/17 05:03:48;;;;;;;52.63;21.27;;;12.80;88.10;;;;;;5072839;28;20071;-46
2021/08/17 05:06:14;;;;;;;55.15;20.05;;;12.80;88.10;;;;;;5073096;28;20069;-46
2021/08/17 05:08:40;;;;;;;41.67;17.75;;;13.00;87.70;;;;;;5072696;28;20025;-46
2021/08/17 05:11:05;;;;;;;51.22;19.70;;;13.20;87.10;;;;;;5072739;28;20052;-46
2021/08/17 05:13:31;;;;;;;49.00;20.00;;;13.20;87.30;;;;;;5073088;28;20021;-47
2021/08/17 05:15:57;;;;;;;56.80;20.63;;;13.30;87.00;;;;;;5072998;28;20523;-47
2021/08/17 05:18:22;;;;;;;50.35;20.38;;;13.30;86.90;;;;;;5072806;28;20089;-48
2021/08/17 05:20:48;;;;;;;62.75;25.40;;;13.30;87.00;;;;;;5072654;28;20021;-46
2021/08/17 05:23:14;;;;;;;50.40;22.90;;;13.30;87.20;;;;;;5072201;28;20047;-46
2021/08/17 05:25:40;;;;;;;48.78;19.92;;;13.30;86.90;;;;;;5072368;28;20029;-49
2021/08/17 05:28:05;;;;;;;56.83;21.95;;;13.60;86.50;;;;;;5072845;28;20256;-47
2021/08/17 05:30:31;;;;;;;58.67;24.35;;;13.50;86.10;;;;;;5072626;28;20027;-47
2021/08/17 05:32:57;;;;;;;60.05;23.55;;;13.60;86.00;;;;;;5072527;28;20031;-47
2021/08/17 05:35:22;;;;;;;58.03;23.70;;;13.60;86.20;;;;;;5072322;28;20064;-46
2021/08/17 05:37:48;;;;;;;51.33;25.55;;;13.70;86.10;;;;;;5072737;28;20349;-46
2021/08/17 05:40:15;;;;;;;66.05;24.33;;;13.50;86.80;;;;;;5072370;28;20035;-49
2021/08/17 05:42:41;;;;;;;49.28;21.52;;;13.50;86.70;;;;;;5072432;28;20055;-47
2021/08/17 05:45:08;;;;;;;66.32;23.92;;;13.50;86.80;;;;;;5072344;28;20029;-47
2021/08/17 05:47:33;;;;;;;55.95;23.25;;;13.50;86.60;;;;;;5071928;28;20036;-47
2021/08/17 05:49:59;;;;;;;55.28;24.73;;;13.50;86.80;;;;;;5072488;28;20024;-47
2021/08/17 05:52:25;;;;;;;59.45;26.00;;;13.50;86.70;;;;;;5072373;28;20024;-47
2021/08/17 05:54:51;;;;;;;64.82;25.30;;;13.60;86.50;;;;;;5072317;28;20035;-47
2021/08/17 05:57:17;;;;;;;53.70;22.55;;;13.70;86.40;;;;;;5075946;28;20035;-45
2021/08/17 05:59:43;;;;;;;57.42;23.50;;;13.80;86.00;;;;;;5076266;28;20024;-45
2021/08/17 06:02:08;;;;;;;56.65;23.15;;;13.80;85.40;;;;;;5076053;28;20031;-46
2021/08/17 06:04:34;;;;;;;50.55;23.30;;;13.70;86.00;;;;;;5076262;28;20070;-48
2021/08/17 06:07:00;;;;;;;57.10;25.05;;;13.80;85.70;;;;;;5076167;28;20016;-46
2021/08/17 06:09:26;;;;;;;51.45;22.30;;;13.90;85.60;;;;;;5076138;28;20035;-46
2021/08/17 06:11:57;;;;;;;54.05;23.40;;;13.90;85.40;;;;;;5074460;28;20028;-47
2021/08/17 06:14:22;;;;;;;50.80;21.98;;;13.80;85.40;;;;;;5075879;28;20020;-46
2021/08/17 06:16:48;;;;;;;50.42;21.35;;;13.80;85.70;;;;;;5075719;28;20032;-50
2021/08/17 06:19:14;;;;;;;52.33;22.48;;;13.90;85.50;;;;;;5075712;28;20099;-46
2021/08/17 06:21:39;;;;;;;45.38;19.65;;;14.00;85.20;;;;;;5075750;28;20067;-46
2021/08/17 06:24:06;;;;;;;54.35;21.38;;;14.00;85.20;;;;;;5074999;28;20074;-48
2021/08/17 06:26:32;;;;;;;48.58;21.88;;;14.00;85.20;;;;;;5075644;28;20036;-46
2021/08/17 06:28:58;;;;;;;103.40;40.17;;;14.10;84.90;;;;;;5075543;28;20329;-51
2021/08/17 06:31:24;;;;;;;52.88;22.95;;;14.40;84.30;;;;;;5075403;28;20021;-47
2021/08/17 06:33:55;;;;;;;56.83;23.13;;;14.40;83.80;;;;;;5075280;28;20476;-46
2021/08/17 06:36:21;;;;;;;51.60;22.90;;;14.50;83.90;;;;;;5075406;28;20524;-47
2021/08/17 06:38:47;;;;;;;51.97;21.77;;;14.60;83.70;;;;;;5075982;28;20365;-47
2021/08/17 06:41:14;;;;;;;52.75;24.50;;;14.80;83.20;;;;;;5075646;28;20029;-47
2021/08/17 06:43:40;;;;;;;45.85;22.10;;;14.80;83.10;;;;;;5075203;28;20089;-46
2021/08/17 06:46:06;;;;;;;51.95;21.85;;;14.80;82.80;;;;;;5075320;28;20029;-46
2021/08/17 06:48:32;;;;;;;54.38;22.08;;;14.80;83.50;;;;;;5073849;28;20134;-49
2021/08/17 06:50:57;;;;;;;43.75;21.67;;;15.00;82.70;;;;;;5075451;28;20345;-47
2021/08/17 06:53:23;;;;;;;49.45;23.02;;;15.10;82.60;;;;;;5075605;28;20052;-47
2021/08/17 06:55:49;;;;;;;48.65;22.50;;;15.00;82.90;;;;;;5075580;28;20024;-50
2021/08/17 06:58:15;;;;;;;50.60;23.80;;;14.80;83.50;;;;;;5075399;28;20111;-47
2021/08/17 07:00:45;;;;;;;53.58;24.33;;;14.80;83.90;;;;;;5075640;28;20097;-47
2021/08/17 07:03:11;;;;;;;;;;;14.80;84.10;;;;;;5075549;28;20040;-47
2021/08/17 07:05:42;;;;;;;45.95;22.48;;;15.10;83.40;;;;;;5074810;28;19905;-46
2021/08/17 07:08:09;;;;;;;46.13;23.00;;;15.40;82.60;;;;;;5074244;28;20104;-49
2021/08/17 07:10:36;;;;;;;48.85;21.90;;;15.60;81.70;;;;;;5075026;28;20380;-48
2021/08/17 07:13:02;;;;;;;55.78;24.25;;;15.30;82.30;;;;;;5074704;28;20047;-48
2021/08/17 07:15:28;;;;;;;50.28;23.17;;;15.20;82.70;;;;;;5074183;28;20108;-47
2021/08/17 07:17:53;;;;;;;52.22;25.02;;;15.40;82.40;;;;;;5074597;28;20021;-47
2021/08/17 07:20:19;;;;;;;47.47;23.23;;;15.70;81.70;;;;;;5074342;28;20103;-49
2021/08/17 07:22:46;;;;;;;45.42;24.40;;;15.60;81.60;;;;;;5074053;28;20521;-46
2021/08/17 07:25:13;;;;;;;48.45;23.17;;;15.60;82.10;;;;;;5074689;28;20032;-47
2021/08/17 07:27:39;;;;;;;47.83;24.00;;;15.70;81.80;;;;;;5074707;28;20025;-47
2021/08/17 07:30:07;;;;;;;45.72;23.35;;;15.60;81.90;;;;;;5075004;28;20024;-48
2021/08/17 07:32:33;;;;;;;50.67;24.83;;;15.60;82.40;;;;;;5074738;28;20085;-47
2021/08/17 07:34:59;;;;;;;40.15;19.67;;;15.70;82.20;;;;;;5074327;28;20155;-49
2021/08/17 07:37:24;;;;;;;53.67;23.67;;;15.50;82.90;;;;;;5074278;28;20107;-49
2021/08/17 07:39:50;;;;;;;52.55;25.92;;;15.50;82.90;;;;;;5074608;28;20039;-48
2021/08/17 07:42:16;;;;;;;49.33;25.80;;;15.40;83.00;;;;;;5075303;28;20029;-47
2021/08/17 07:44:42;;;;;;;61.17;28.65;;;15.60;82.50;;;;;;5073021;28;20017;-48
2021/08/17 07:47:08;;;;;;;49.97;27.38;;;15.70;82.60;;;;;;5074877;28;20424;-47
2021/08/17 07:49:33;;;;;;;51.83;27.35;;;15.60;82.90;;;;;;5074392;28;20025;-48
2021/08/17 07:52:00;;;;;;;51.30;26.77;;;15.70;82.80;;;;;;5074027;28;20032;-48
2021/08/17 07:54:27;;;;;;;49.03;23.95;;;15.90;82.00;;;;;;5073710;28;20029;-46
2021/08/17 07:56:53;;;;;;;54.90;27.40;;;16.00;81.50;;;;;;5073845;28;20048;-48
2021/08/17 07:59:19;;;;;;;55.95;27.17;;;16.00;82.00;;;;;;5073986;28;20024;-51
2021/08/17 08:01:45;;;;;;;52.72;23.60;;;16.00;81.40;;;;;;5073656;28;20021;-48
2021/08/17 08:04:11;;;;;;;51.88;26.73;;;16.20;81.60;;;;;;5073295;28;20379;-48
2021/08/17 08:06:36;;;;;;;47.63;24.80;;;16.00;81.80;;;;;;5073209;28;20047;-47
2021/08/17 08:09:03;;;;;;;53.78;27.10;;;16.10;81.50;;;;;;5073331;28;20497;-46
2021/08/17 08:11:29;;;;;;;50.08;24.42;;;16.00;81.70;;;;;;5073918;28;20416;-48
2021/08/17 08:13:57;;;;;;;49.88;26.80;;;15.90;81.90;;;;;;5073751;28;20024;-47
2021/08/17 08:16:24;;;;;;;54.38;27.38;;;16.10;81.60;;;;;;5073777;28;20024;-47
2021/08/17 08:18:49;;;;;;;48.78;26.10;;;16.10;82.00;;;;;;5071400;28;20112;-48
2021/08/17 08:21:15;;;;;;;48.25;25.35;;;16.50;80.20;;;;;;5072447;28;20091;-47
2021/08/17 08:23:41;;;;;;;39.53;21.85;;;17.20;78.10;;;;;;5072998;28;20035;-50
2021/08/17 08:26:06;;;;;;;48.47;24.23;;;17.80;75.50;;;;;;5073427;28;20029;-48
2021/08/17 08:28:32;;;;;;;42.25;24.05;;;18.10;74.00;;;;;;5072697;28;20020;-47
2021/08/17 08:30:58;;;;;;;41.70;23.00;;;18.10;74.60;;;;;;5072602;28;20027;-47
2021/08/17 08:33:24;;;;;;;39.60;24.10;;;17.80;74.60;;;;;;5072950;28;20025;-46
2021/08/17 08:35:49;;;;;;;45.55;24.38;;;17.40;76.20;;;;;;5072866;28;20048;-51
2021/08/17 08:38:15;;;;;;;43.42;23.70;;;17.80;75.60;;;;;;5072971;28;20384;-46
2021/08/17 08:40:45;;;;;;;40.28;23.58;;;18.00;74.60;;;;;;5072616;28;20029;-46
2021/08/17 08:43:11;;;;;;;42.15;23.73;;;18.10;74.10;;;;;;5073046;28;20029;-48
2021/08/17 08:45:38;;;;;;;41.28;24.33;;;17.70;74.60;;;;;;5072577;28;20112;-46
2021/08/17 08:48:05;;;;;;;47.97;26.92;;;17.40;75.00;;;;;;5072714;28;20078;-48
2021/08/17 08:50:33;;;;;;;38.47;23.65;;;17.50;75.10;;;;;;5072314;28;20375;-47
2021/08/17 08:53:00;;;;;;;47.92;25.23;;;17.60;73.80;;;;;;5071917;28;20039;-47
2021/08/17 08:55:26;;;;;;;47.50;26.00;;;17.80;73.90;;;;;;5072898;28;20024;-50
2021/08/17 08:57:52;;;;;;;38.58;23.58;;;17.60;74.60;;;;;;5072237;28;20047;-47
2021/08/17 09:00:18;;;;;;;40.60;25.27;;;17.30;76.30;;;;;;5072250;28;20480;-48
2021/08/17 09:02:44;;;;;;;42.05;22.90;;;17.00;76.80;;;;;;5070753;28;20392;-47
2021/08/17 09:05:10;;;;;;;47.13;26.33;;;16.80;77.70;;;;;;5072061;28;20021;-47
2021/08/17 09:07:46;;;;;;;49.08;23.70;;;16.90;78.20;;;;;;5072354;28;20033;-48
2021/08/17 09:10:18;;;;;;;41.10;24.45;;;16.80;77.60;;;;;;5070587;28;20047;-47
2021/08/17 09:12:50;;;;;;;46.67;25.90;;;16.80;77.60;;;;;;5070148;28;20024;-52
2021/08/17 09:15:22;;;;;;;40.35;24.70;;;16.70;77.70;;;;;;5071473;28;20033;-47
2021/08/17 09:18:11;;;;;;;44.60;22.30;;;16.70;77.30;;;;;;5071922;28;20028;-50
2021/08/17 09:20:42;;;;;;;34.67;20.65;;;17.10;75.80;;;;;;5070450;28;20177;-49
2021/08/17 09:23:28;;;;;;;36.40;20.27;;;17.20;75.40;;;;;;5071513;28;20048;-50
2021/08/17 09:25:59;;;;;;;38.92;19.40;;;17.30;74.80;;;;;;5071663;28;20073;-47
2021/08/17 09:28:29;;;;;;;35.97;19.17;;;17.20;75.00;;;;;;5071877;28;20024;-47
2021/08/17 09:30:55;;;;;;;32.30;17.98;;;17.30;75.00;;;;;;5071286;28;20029;-54
2021/08/17 09:33:21;;;;;;;33.65;17.75;;;17.40;74.30;;;;;;5072123;28;20032;-50
2021/08/17 09:35:47;;;;;;;34.58;18.70;;;17.40;74.60;;;;;;5071691;28;20024;-47
2021/08/17 09:38:15;;;;;;;31.85;18.88;;;17.60;73.70;;;;;;5071904;28;20035;-46
2021/08/17 09:40:41;;;;;;;30.60;17.58;;;17.50;73.90;;;;;;5071827;28;20025;-47
2021/08/17 09:43:13;;;;;;;36.20;19.27;;;17.70;73.40;;;;;;5069741;28;20037;-48
2021/08/17 09:45:38;;;;;;;36.33;19.23;;;17.70;72.40;;;;;;5071385;28;20094;-49
2021/08/17 09:48:04;;;;;;;31.55;18.45;;;18.10;70.40;;;;;;5071569;28;20025;-47
2021/08/17 09:50:37;;;;;;;30.10;18.13;;;17.70;72.20;;;;;;5071808;28;20049;-47
2021/08/17 09:53:09;;;;;;;35.17;19.88;;;17.70;72.10;;;;;;5071542;28;20029;-47
2021/08/17 09:55:43;;;;;;;37.33;20.25;;;17.60;72.40;;;;;;5071448;28;20051;-47
2021/08/17 09:58:21;;;;;;;35.50;19.33;;;17.70;72.10;;;;;;5071647;28;20048;-48
2021/08/17 10:00:49;;;;;;;29.73;17.80;;;17.80;70.60;;;;;;5072032;28;20492;-46
2021/08/17 10:03:16;;;;;;;31.35;18.23;;;17.90;70.90;;;;;;5071643;28;20378;-47
2021/08/17 10:05:42;;;;;;;36.78;19.65;;;18.00;70.30;;;;;;5071212;28;20024;-48
2021/08/17 10:08:11;;;;;;;34.03;16.92;;;17.80;70.70;;;;;;5070450;28;20029;-47
2021/08/17 10:10:39;;;;;;;30.42;15.88;;;17.40;72.20;;;;;;5071658;28;20111;-46
2021/08/17 10:13:08;;;;;;;32.90;17.80;;;17.40;72.20;;;;;;5053237;28;20037;-47
2021/08/17 10:15:34;;;;;;;35.85;17.98;;;17.40;71.70;;;;;;5071403;28;20032;-50
2021/08/17 10:18:00;;;;;;;32.97;16.90;;;17.40;71.70;;;;;;5071321;28;20044;-49
2021/08/17 10:20:27;;;;;;;32.17;17.45;;;17.40;71.70;;;;;;5071307;28;20033;-48
2021/08/17 10:22:53;;;;;;;25.77;16.13;;;17.60;71.30;;;;;;5071296;28;20444;-47
2021/08/17 10:25:19;;;;;;;29.83;14.57;;;17.80;70.40;;;;;;5069746;28;20021;-48
2021/08/17 10:27:45;;;;;;;29.67;16.67;;;18.00;70.30;;;;;;5071294;28;20032;-50
2021/08/17 10:30:22;;;;;;;31.52;16.77;;;18.10;70.20;;;;;;5071746;28;20021;-51
2021/08/17 10:32:58;;;;;;;30.80;15.65;;;18.40;69.10;;;;;;5070242;28;20096;-47
2021/08/17 10:35:27;;;;;;;25.63;14.60;;;18.30;68.70;;;;;;5071669;28;20131;-47
2021/08/17 10:38:08;;;;;;;36.58;17.02;;;18.10;68.80;;;;;;5071452;28;20100;-47
2021/08/17 10:40:49;;;;;;;34.28;17.25;;;17.70;70.20;;;;;;5071106;28;20021;-47
2021/08/17 10:43:16;;;;;;;30.63;15.93;;;17.60;70.20;;;;;;5073291;28;20064;-47
2021/08/17 10:45:55;;;;;;;32.35;15.48;;;17.50;71.60;;;;;;5074348;28;20104;-51
2021/08/17 10:48:51;;;;;;;25.73;13.85;;;17.70;69.90;;;;;;5074173;28;20016;-48
2021/08/17 10:51:20;;;;;;;27.10;13.85;;;17.50;69.90;;;;;;5074687;28;20452;-48
2021/08/17 10:53:47;;;;;;;26.25;13.27;;;17.40;69.50;;;;;;5073199;28;20031;-47
2021/08/17 10:56:18;;;;;;;24.95;14.32;;;17.50;69.70;;;;;;5074754;28;20085;-48
2021/08/17 10:58:46;;;;;;;19.27;12.15;;;17.30;69.90;;;;;;5074451;28;20024;-48
2021/08/17 11:01:12;;;;;;;22.58;12.30;;;17.30;70.70;;;;;;5072345;28;20047;-47
2021/08/17 11:03:43;;;;;;;24.55;11.93;;;17.20;70.90;;;;;;5073064;28;20086;-47
2021/08/17 11:06:09;;;;;;;19.73;11.88;;;17.20;70.40;;;;;;5073893;28;20077;-50
2021/08/17 11:08:38;;;;;;;18.23;10.85;;;17.20;70.70;;;;;;5072507;28;20480;-48
2021/08/17 11:11:17;;;;;;;23.70;12.35;;;17.10;71.10;;;;;;5074847;28;20108;-48
2021/08/17 11:14:06;;;;;;;25.00;12.18;;;17.20;70.60;;;;;;5073943;28;20086;-49
2021/08/17 11:16:32;;;;;;;23.08;12.20;;;17.20;70.30;;;;;;5074168;28;20034;-47
2021/08/17 11:19:02;;;;;;;21.20;10.98;;;17.00;70.60;;;;;;5074203;28;20355;-48
2021/08/17 11:21:35;;;;;;;21.23;10.95;;;17.10;70.30;;;;;;5073565;28;20062;-48
2021/08/17 11:24:19;;;;;;;22.15;11.18;;;17.20;69.70;;;;;;5073743;28;20329;-47
2021/08/17 11:27:06;;;;;;;24.17;11.13;;;17.50;68.80;;;;;;5073872;28;20024;-47
2021/08/17 11:29:53;;;;;;;18.20;10.30;;;17.80;67.40;;;;;;5074099;28;20024;-48
2021/08/17 11:32:44;;;;;;;21.52;10.68;;;18.00;66.90;;;;;;5073780;28;20066;-47
2021/08/17 11:35:22;;;;;;;17.50;10.02;;;18.20;66.10;;;;;;5073558;28;20083;-48
2021/08/17 11:37:50;;;;;;;17.15;10.55;;;18.20;65.80;;;;;;5073598;28;20017;-47
2021/08/17 11:40:24;;;;;;;18.60;11.65;;;18.00;65.70;;;;;;5073579;28;20419;-46
2021/08/17 11:42:55;;;;;;;18.25;9.90;;;18.00;65.80;;;;;;5073594;28;20024;-45
2021/08/17 11:45:24;;;;;;;23.70;11.95;;;18.00;65.80;;;;;;5074279;28;20028;-46
2021/08/17 11:47:51;;;;;;;16.95;8.55;;;17.90;66.70;;;;;;5073439;28;20024;-46
2021/08/17 11:50:20;;;;;;;18.55;10.30;;;17.80;66.00;;;;;;5074000;28;20020;-48
2021/08/17 11:52:46;;;;;;;18.80;10.82;;;18.00;66.10;;;;;;5072920;28;20043;-46
2021/08/17 11:55:33;;;;;;;18.73;9.95;;;18.30;65.40;;;;;;5073391;28;20486;-50
2021/08/17 11:58:00;;;;;;;19.48;10.82;;;18.40;65.50;;;;;;5073626;28;20105;-46
2021/08/17 12:00:28;;;;;;;17.13;10.82;;;18.30;65.20;;;;;;5073830;28;20029;-48
2021/08/17 12:03:06;;;;;;;17.23;9.48;;;17.90;66.10;;;;;;5074084;28;20536;-46
2021/08/17 12:05:37;;;;;;;19.67;9.07;;;17.80;66.70;;;;;;5074029;28;20414;-46
2021/08/17 12:08:05;;;;;;;16.73;8.20;;;17.80;67.20;;;;;;5073900;28;20039;-49
2021/08/17 12:10:35;;;;;;;16.50;9.23;;;17.80;67.10;;;;;;5073455;28;20035;-47
2021/08/17 12:13:13;;;;;;;18.10;9.15;;;17.50;67.70;;;;;;5073300;28;20415;-47
2021/08/17 12:15:41;;;;;;;15.73;9.05;;;17.50;67.80;;;;;;5073384;28;20395;-48
2021/08/17 12:18:09;;;;;;;18.00;9.98;;;17.20;68.20;;;;;;5073116;28;20152;-47
2021/08/17 12:20:50;;;;;;;18.17;8.73;;;17.10;68.60;;;;;;5072465;28;20032;-51
2021/08/17 12:23:32;;;;;;;;;;;17.30;68.90;;;;;;5073290;28;20063;-46
2021/08/17 12:26:13;;;;;;;14.68;9.73;;;17.30;69.30;;;;;;5055177;28;19950;-46
2021/08/17 12:28:39;;;;;;;;;;;17.10;70.20;;;;;;5073998;28;20024;-48
2021/08/17 12:31:10;;;;;;;19.25;8.98;;;16.90;70.40;;;;;;5072728;28;19905;-51
2021/08/17 12:33:47;;;;;;;18.27;8.88;;;17.00;69.90;;;;;;5072829;28;20082;-47